Time;durP1;ratioP1;P1;durP2;ratioP2;P2;SDS_P1;SDS_P2;PMS_P1;PMS_P2;Temp;Humidity;BMP_temperature;BMP_pressure;BME280_temperature;BME280_humidity;BME280_pressure;Samples;Min_cycle;Max_cycle;Signal;HPM_P1;HPM_P2
2021/05/21 00:00:38;;;;;;;0.50;0.20;;;;;;;;;;3562940;40;20389;-66
2021/05/21 00:03:05;;;;;;;0.40;0.20;;;;;;;;;;3560122;40;20397;-66
2021/05/21 00:05:32;;;;;;;1.90;0.10;;;;;;;;;;3561526;40;20490;-66
2021/05/21 00:07:58;;;;;;;0.40;0.20;;;;;;;;;;3563479;40;20391;-66
2021/05/21 00:10:25;;;;;;;0.28;0.20;;;;;;;;;;3565559;40;21418;-65
2021/05/21 00:12:51;;;;;;;0.32;0.20;;;;;;;;;;3558974;40;20401;-66
2021/05/21 00:15:17;;;;;;;1.40;0.20;;;;;;;;;;3561744;40;20405;-66
2021/05/21 00:17:44;;;;;;;0.30;0.20;;;;;;;;;;3562886;40;20381;-66
2021/05/21 00:20:11;;;;;;;0.68;0.10;;;;;;;;;;3558789;40;20396;-66
2021/05/21 00:22:38;;;;;;;0.28;0.10;;;;;;;;;;3556786;40;20403;-66
2021/05/21 00:25:05;;;;;;;0.60;0.20;;;;;;;;;;3560819;40;20414;-66
2021/05/21 00:27:31;;;;;;;1.70;0.20;;;;;;;;;;3558046;40;20772;-66
2021/05/21 00:29:57;;;;;;;1.83;0.20;;;;;;;;;;3559824;40;20765;-65
2021/05/21 00:32:23;;;;;;;0.50;0.20;;;;;;;;;;3560231;40;20397;-65
2021/05/21 00:34:49;;;;;;;0.77;0.20;;;;;;;;;;3563489;40;20485;-67
2021/05/21 00:37:15;;;;;;;0.30;0.10;;;;;;;;;;3558821;40;20403;-66
2021/05/21 00:39:42;;;;;;;0.35;0.20;;;;;;;;;;3558370;40;20394;-65
2021/05/21 00:42:09;;;;;;;1.58;0.35;;;;;;;;;;3560000;40;20405;-65
2021/05/21 00:44:35;;;;;;;1.48;0.20;;;;;;;;;;3557135;40;20415;-66
2021/05/21 00:47:01;;;;;;;0.90;0.20;;;;;;;;;;3559633;40;20391;-65
2021/05/21 00:49:27;;;;;;;0.60;0.28;;;;;;;;;;3561660;40;20380;-65
2021/05/21 00:51:53;;;;;;;0.40;0.20;;;;;;;;;;3560183;40;20433;-65
2021/05/21 00:54:20;;;;;;;0.70;0.20;;;;;;;;;;3564202;40;20406;-66
2021/05/21 00:56:48;;;;;;;0.50;0.20;;;;;;;;;;3562597;40;20389;-65
2021/05/21 00:59:14;;;;;;;0.50;0.20;;;15.20;72.70;;;;;;3558596;40;20395;-65
2021/05/21 01:04:08;;;;;;;0.50;0.20;;;15.00;72.80;;;;;;3568926;40;20838;-71
2021/05/21 01:06:34;;;;;;;0.75;0.20;;;15.00;73.90;;;;;;3569712;40;20354;-70
2021/05/21 01:09:00;;;;;;;1.80;0.30;;;14.90;73.10;;;;;;3576894;40;20401;-71
2021/05/21 01:11:26;;;;;;;1.00;0.20;;;14.90;73.20;;;;;;3569593;40;20447;-71
2021/05/21 01:13:53;;;;;;;0.57;0.20;;;14.80;73.70;;;;;;3569688;40;20358;-71
2021/05/21 01:16:19;;;;;;;2.30;0.40;;;14.80;73.60;;;;;;3576752;40;20445;-71
2021/05/21 01:18:45;;;;;;;1.70;0.30;;;14.80;73.50;;;;;;3569237;40;20631;-70
2021/05/21 01:21:12;;;;;;;0.20;0.10;;;14.70;73.80;;;;;;3576182;40;20448;-72
2021/05/21 01:23:38;;;;;;;2.05;0.20;;;14.60;74.00;;;;;;3569305;40;20378;-70
2021/05/21 01:26:04;;;;;;;0.40;0.20;;;14.70;73.00;;;;;;3569587;40;20727;-69
2021/05/21 01:28:30;;;;;;;0.77;0.30;;;14.80;72.50;;;;;;3569334;40;20358;-71
2021/05/21 01:30:56;;;;;;;1.23;0.20;;;14.80;73.30;;;;;;3569479;40;20745;-70
2021/05/21 01:33:23;;;;;;;0.30;0.10;;;14.80;72.70;;;;;;3569070;40;20642;-71
2021/05/21 01:35:50;;;;;;;0.60;0.20;;;14.80;72.60;;;;;;3559632;40;20416;-71
2021/05/21 01:38:17;;;;;;;1.70;0.30;;;14.80;72.80;;;;;;3569312;40;20798;-71
2021/05/21 01:40:44;;;;;;;0.77;0.20;;;14.80;72.80;;;;;;3569423;40;20369;-71
2021/05/21 01:43:11;;;;;;;1.20;0.20;;;14.80;72.20;;;;;;3558364;40;20407;-71
2021/05/21 01:45:38;;;;;;;2.33;0.20;;;14.80;73.40;;;;;;3566839;40;20402;-71
2021/05/21 01:48:05;;;;;;;0.50;0.10;;;14.70;73.40;;;;;;3566244;40;20415;-70
2021/05/21 01:50:31;;;;;;;1.65;0.10;;;14.60;74.00;;;;;;3559405;40;20360;-71
2021/05/21 01:52:57;;;;;;;0.60;0.20;;;;;;;;;;3559665;40;20470;-70
2021/05/21 01:55:24;;;;;;;0.43;0.20;;;;;;;;;;3558319;40;20407;-70
2021/05/21 01:57:50;;;;;;;1.25;0.22;;;;;;;;;;3559790;40;20360;-70
2021/05/21 02:00:17;;;;;;;0.50;0.20;;;;;;;;;;3567545;40;20515;-71
2021/05/21 02:02:43;;;;;;;0.60;0.20;;;;;;;;;;3561323;40;20427;-70
2021/05/21 02:05:10;;;;;;;0.60;0.20;;;;;;;;;;3558424;40;20470;-71
2021/05/21 02:07:36;;;;;;;0.90;0.10;;;;;;;;;;3559424;40;20348;-71
2021/05/21 02:10:04;;;;;;;0.40;0.15;;;;;;;;;;3559275;40;20760;-71
2021/05/21 02:12:32;;;;;;;0.70;0.15;;;;;;;;;;3559282;40;20355;-69
2021/05/21 02:14:59;;;;;;;0.40;0.10;;;;;;;;;;3559352;40;20749;-70
2021/05/21 02:17:26;;;;;;;0.60;0.10;;;;;;;;;;3559057;40;20586;-70
2021/05/21 02:19:56;;;;;;;1.33;0.22;;;;;;;;;;3570176;40;20358;-72
2021/05/21 02:22:23;;;;;;;0.10;0.10;;;14.60;72.80;;;;;;3578800;40;20392;-72
2021/05/21 02:24:50;;;;;;;0.90;0.20;;;14.30;77.80;;;;;;3572989;40;20418;-72
2021/05/21 02:27:16;;;;;;;0.20;0.10;;;14.30;78.60;;;;;;3570888;40;20420;-71
2021/05/21 02:29:43;;;;;;;1.50;0.15;;;;;;;;;;3564860;40;20763;-72
2021/05/21 02:32:09;;;;;;;0.38;0.20;;;;;;;;;;3569799;40;20377;-72
2021/05/21 02:34:36;;;;;;;1.10;0.15;;;;;;;;;;3576685;40;20405;-72
2021/05/21 02:37:03;;;;;;;0.77;0.20;;;;;;;;;;3572865;40;20672;-72
2021/05/21 02:39:29;;;;;;;1.20;0.50;;;;;;;;;;3568119;40;20378;-71
2021/05/21 02:41:55;;;;;;;1.17;0.17;;;;;;;;;;3568101;40;20742;-72
2021/05/21 02:44:21;;;;;;;0.80;0.30;;;;;;;;;;3567654;40;20405;-72
2021/05/21 02:46:49;;;;;;;0.95;0.20;;;;;;;;;;3567765;40;20459;-71
2021/05/21 02:49:19;;;;;;;1.80;0.20;;;;;;;;;;3567757;40;20365;-71
2021/05/21 02:51:45;;;;;;;0.30;0.20;;;;;;;;;;3570047;40;20364;-71
2021/05/21 02:54:12;;;;;;;0.50;0.23;;;;;;;;;;3564599;40;20354;-71
2021/05/21 02:56:38;;;;;;;0.50;0.20;;;;;;;;;;3577462;40;20660;-71
2021/05/21 02:59:04;;;;;;;1.77;0.20;;;;;;;;;;3580078;40;20414;-71
2021/05/21 03:01:30;;;;;;;1.33;0.20;;;;;;;;;;3568368;40;20376;-71
2021/05/21 03:03:57;;;;;;;1.10;0.20;;;;;;;;;;3570074;40;20817;-72
2021/05/21 03:06:23;;;;;;;0.40;0.17;;;;;;;;;;3594246;40;20369;-71
2021/05/21 03:08:50;;;;;;;0.98;0.20;;;;;;;;;;3582698;40;20355;-72
2021/05/21 03:11:17;;;;;;;0.70;0.10;;;;;;;;;;3587599;40;20708;-72
2021/05/21 03:13:43;;;;;;;0.80;0.20;;;;;;;;;;3586562;40;20394;-71
2021/05/21 03:16:09;;;;;;;0.50;0.20;;;;;;;;;;3586146;40;20417;-71
2021/05/21 03:18:35;;;;;;;1.05;0.22;;;;;;;;;;3587933;40;20407;-72
2021/05/21 03:21:03;;;;;;;0.45;0.22;;;;;;;;;;3581342;40;20374;-71
2021/05/21 03:23:29;;;;;;;1.20;0.20;;;;;;;;;;3587711;40;20382;-72
2021/05/21 03:25:55;;;;;;;0.30;0.20;;;;;;;;;;3587640;40;20754;-71
2021/05/21 03:28:21;;;;;;;1.13;0.20;;;;;;;;;;3587816;40;20383;-71
2021/05/21 03:30:48;;;;;;;0.93;0.40;;;;;;;;;;3586140;40;20695;-71
2021/05/21 03:33:14;;;;;;;0.73;0.40;;;;;;;;;;3591139;40;20737;-71
2021/05/21 03:35:40;;;;;;;0.40;0.22;;;;;;;;;;3587176;40;20366;-73
2021/05/21 03:38:08;;;;;;;1.20;0.20;;;;;;;;;;3582304;40;20364;-71
2021/05/21 03:40:35;;;;;;;0.80;0.10;;;;;;;;;;3587407;40;20393;-72
2021/05/21 03:43:02;;;;;;;1.35;0.20;;;;;;;;;;3585314;40;20448;-71
2021/05/21 03:45:28;;;;;;;0.50;0.10;;;;;;;;;;3585839;40;20445;-71
2021/05/21 03:47:54;;;;;;;0.90;0.40;;;;;;;;;;3587940;40;20369;-71
2021/05/21 03:50:22;;;;;;;0.70;0.20;;;;;;;;;;3588374;40;20363;-71
2021/05/21 03:52:48;;;;;;;1.58;0.20;;;;;;;;;;3588991;40;20366;-72
2021/05/21 03:55:15;;;;;;;0.75;0.20;;;;;;;;;;3597673;40;20823;-71
2021/05/21 03:57:42;;;;;;;0.70;0.20;;;;;;;;;;3586602;40;20418;-71
2021/05/21 04:00:10;;;;;;;0.43;0.20;;;;;;;;;;3585943;40;20410;-71
2021/05/21 04:02:36;;;;;;;1.40;0.40;;;;;;;;;;3586089;40;20674;-71
2021/05/21 04:05:02;;;;;;;0.70;0.28;;;;;;;;;;3584154;40;20784;-71
2021/05/21 04:07:29;;;;;;;0.40;0.20;;;;;;;;;;3580759;40;20402;-71
2021/05/21 04:09:55;;;;;;;0.68;0.20;;;;;;;;;;3589038;40;20399;-72
2021/05/21 04:12:25;;;;;;;0.65;0.40;;;;;;;;;;3590156;40;20643;-71
2021/05/21 04:14:51;;;;;;;0.50;0.30;;;;;;;;;;3581909;40;20380;-71
2021/05/21 04:17:19;;;;;;;1.60;0.50;;;;;;;;;;3587612;40;20396;-71
2021/05/21 04:19:45;;;;;;;2.40;0.60;;;;;;;;;;3590813;40;20755;-72
2021/05/21 04:22:11;;;;;;;2.80;0.40;;;;;;;;;;3587874;40;20381;-71
2021/05/21 04:24:37;;;;;;;0.40;0.20;;;;;;;;;;3590585;40;20408;-71
2021/05/21 04:27:04;;;;;;;0.82;0.32;;;;;;;;;;3587101;40;20362;-71
2021/05/21 04:29:31;;;;;;;0.43;0.20;;;;;;;;;;3584251;40;20745;-71
2021/05/21 04:31:58;;;;;;;0.40;0.30;;;;;;;;;;3583410;40;20436;-71
2021/05/21 04:34:24;;;;;;;1.60;0.30;;;;;;;;;;3582376;40;20369;-71
2021/05/21 04:36:50;;;;;;;0.70;0.20;;;;;;;;;;3590890;40;20414;-72
2021/05/21 04:39:16;;;;;;;0.80;0.20;;;;;;;;;;3587104;40;20414;-72
2021/05/21 04:41:43;;;;;;;0.52;0.22;;;;;;;;;;3587520;40;20359;-71
2021/05/21 04:44:11;;;;;;;2.05;0.50;;;;;;;;;;3587020;40;20417;-72
2021/05/21 04:46:38;;;;;;;1.15;0.30;;;;;;;;;;3580331;40;20455;-71
2021/05/21 04:49:05;;;;;;;1.00;0.30;;;;;;;;;;3572016;40;20380;-72
2021/05/21 04:51:31;;;;;;;0.40;0.20;;;;;;;;;;3592915;40;20822;-71
2021/05/21 04:53:59;;;;;;;1.42;0.30;;;;;;;;;;3585692;40;20468;-72
2021/05/21 04:56:25;;;;;;;1.13;0.38;;;;;;;;;;3582433;40;20379;-71
2021/05/21 04:58:51;;;;;;;1.20;0.30;;;;;;;;;;3587588;40;20364;-72
2021/05/21 05:01:18;;;;;;;0.50;0.28;;;;;;;;;;3578557;40;20371;-71
2021/05/21 05:03:45;;;;;;;0.98;0.38;;;;;;;;;;3587069;40;20767;-72
2021/05/21 05:06:11;;;;;;;0.80;0.27;;;;;;;;;;3586724;40;20457;-71
2021/05/21 05:08:38;;;;;;;3.00;0.20;;;;;;;;;;3578513;40;20420;-72
2021/05/21 05:11:05;;;;;;;0.63;0.20;;;;;;;;;;3586666;40;20359;-72
2021/05/21 05:13:31;;;;;;;2.90;0.30;;;;;;;;;;3586623;40;20359;-71
2021/05/21 05:15:57;;;;;;;0.70;0.20;;;;;;;;;;3588061;40;20381;-71
2021/05/21 05:18:23;;;;;;;1.05;0.30;;;;;;;;;;3586527;40;20666;-71
2021/05/21 05:20:50;;;;;;;1.00;0.20;;;;;;;;;;3593764;40;20382;-71
2021/05/21 05:23:17;;;;;;;0.65;0.20;;;;;;;;;;3590308;40;20858;-71
2021/05/21 05:25:44;;;;;;;1.00;0.30;;;;;;;;;;3584982;40;20379;-71
2021/05/21 05:28:12;;;;;;;1.13;0.20;;;;;;;;;;3587089;40;20551;-73
2021/05/21 05:30:38;;;;;;;0.98;0.20;;;;;;;;;;3582151;40;20730;-72
2021/05/21 05:33:05;;;;;;;0.30;0.20;;;;;;;;;;3587598;40;20395;-71
2021/05/21 05:35:31;;;;;;;1.90;0.40;;;;;;;;;;3585617;40;20496;-71
2021/05/21 05:37:58;;;;;;;1.55;0.22;;;;;;;;;;3596573;39;20440;-71
2021/05/21 05:40:25;;;;;;;0.90;0.20;;;;;;;;;;3592301;40;20377;-71
2021/05/21 05:42:51;;;;;;;0.30;0.13;;;;;;;;;;3592592;40;20402;-71
2021/05/21 05:45:17;;;;;;;1.65;0.10;;;;;;;;;;3588044;40;20388;-71
2021/05/21 05:47:43;;;;;;;0.73;0.20;;;;;;;;;;3586813;40;20441;-72
2021/05/21 05:50:10;;;;;;;1.02;0.30;;;;;;;;;;3586841;40;20366;-71
2021/05/21 05:52:36;;;;;;;2.17;0.20;;;;;;;;;;3586708;40;20401;-71
2021/05/21 05:55:04;;;;;;;1.53;0.30;;;;;;;;;;3583453;40;20444;-71
2021/05/21 05:57:30;;;;;;;1.50;0.32;;;;;;;;;;3587862;40;20452;-71
2021/05/21 05:59:56;;;;;;;0.63;0.20;;;;;;;;;;3591474;40;20381;-71
2021/05/21 06:02:22;;;;;;;1.88;0.30;;;;;;;;;;3587685;40;20405;-71
2021/05/21 06:04:49;;;;;;;2.83;0.40;;;;;;;;;;3587809;40;20758;-71
2021/05/21 06:07:15;;;;;;;1.23;0.23;;;;;;;;;;3585598;40;20422;-71
2021/05/21 06:09:41;;;;;;;1.45;0.22;;;;;;;;;;3582512;40;20411;-71
2021/05/21 06:12:10;;;;;;;1.55;0.40;;;;;;;;;;3586966;40;20444;-71
2021/05/21 06:14:36;;;;;;;1.33;0.47;;;;;;;;;;3593438;40;20367;-72
2021/05/21 06:17:02;;;;;;;1.85;0.30;;;;;;;;;;3594340;40;20462;-71
2021/05/21 06:19:28;;;;;;;1.10;0.40;;;;;;;;;;3583118;40;20408;-71
2021/05/21 06:21:54;;;;;;;1.40;0.30;;;;;;;;;;3583448;40;20433;-71
2021/05/21 06:24:20;;;;;;;0.95;0.47;;;;;;;;;;3580969;40;20390;-72
2021/05/21 06:29:32;;;;;;;1.27;0.50;;;;;;;;;;3587841;40;20767;-71
2021/05/21 06:31:58;;;;;;;1.60;0.40;;;;;;;;;;3586600;40;20418;-71
2021/05/21 06:34:25;;;;;;;1.48;0.25;;;;;;;;;;3565419;40;20386;-70
2021/05/21 06:36:51;;;;;;;0.60;0.40;;;;;;;;;;3566035;40;20386;-72
2021/05/21 06:39:17;;;;;;;1.00;0.30;;;;;;;;;;3564787;40;20398;-71
2021/05/21 06:41:44;;;;;;;3.72;0.40;;;;;;;;;;3557942;40;20766;-71
2021/05/21 06:44:10;;;;;;;2.30;0.40;;;;;;;;;;3563742;40;20426;-71
2021/05/21 06:46:37;;;;;;;3.05;0.70;;;;;;;;;;3575571;40;20404;-71
2021/05/21 06:49:09;;;;;;;1.08;0.50;;;;;;;;;;3561613;40;20934;-71
2021/05/21 06:51:35;;;;;;;1.60;0.30;;;;;;;;;;3565129;40;20378;-71
2021/05/21 06:54:02;;;;;;;1.60;0.30;;;;;;;;;;3565594;40;20405;-71
2021/05/21 06:56:28;;;;;;;1.13;0.30;;;;;;;;;;3566181;40;20447;-71
2021/05/21 06:58:54;;;;;;;1.70;0.40;;;;;;;;;;3565865;40;20798;-71
2021/05/21 07:01:20;;;;;;;1.30;0.30;;;;;;;;;;3566359;40;20429;-71
2021/05/21 07:03:47;;;;;;;1.70;0.30;;;;;;;;;;3564760;40;20409;-71
2021/05/21 07:06:13;;;;;;;1.70;0.38;;;;;;;;;;3583995;40;20378;-77
2021/05/21 07:08:40;;;;;;;1.70;0.37;;;;;;;;;;3585376;40;20411;-71
2021/05/21 07:11:06;;;;;;;1.50;0.50;;;;;;;;;;3587290;40;20371;-72
2021/05/21 07:13:32;;;;;;;1.23;0.30;;;;;;;;;;3580276;40;20660;-72
2021/05/21 07:16:00;;;;;;;1.10;0.20;;;;;;;;;;3573700;40;20485;-71
2021/05/21 07:18:26;;;;;;;0.98;0.20;;;;;;;;;;3573360;40;20387;-71
2021/05/21 07:20:59;;;;;;;2.00;0.30;;;;;;;;;;3569561;40;20399;-71
2021/05/21 07:23:25;;;;;;;1.30;0.40;;;;;;;;;;3569171;40;20377;-71
2021/05/21 07:25:51;;;;;;;0.90;0.30;;;14.10;80.10;;;;;;3569567;40;20364;-71
2021/05/21 07:28:17;;;;;;;1.70;0.40;;;16.40;91.00;;;;;;3571920;40;20425;-71
2021/05/21 07:30:43;;;;;;;2.20;0.40;;;;;;;;;;3564509;40;20398;-71
2021/05/21 07:33:09;;;;;;;0.63;0.30;;;;;;;;;;3568748;40;20702;-72
2021/05/21 07:35:35;;;;;;;1.95;0.22;;;16.60;90.10;;;;;;3570131;40;20770;-71
2021/05/21 07:38:02;;;;;;;5.03;0.40;;;16.80;90.00;;;;;;3568765;40;20417;-71
2021/05/21 07:40:28;;;;;;;1.10;0.35;;;16.80;90.50;;;;;;3567757;40;20370;-71
2021/05/21 07:42:54;;;;;;;1.33;0.30;;;;;;;;;;3567675;40;20423;-71
2021/05/21 07:45:20;;;;;;;1.95;0.30;;;17.40;96.40;;;;;;3566660;40;20810;-71
2021/05/21 07:47:46;;;;;;;1.58;0.40;;;17.40;90.20;;;;;;3559514;40;20402;-72
2021/05/21 07:50:13;;;;;;;2.05;0.57;;;17.50;89.00;;;;;;3572582;40;20369;-72
2021/05/21 07:52:39;;;;;;;1.95;0.35;;;17.50;90.00;;;;;;3576608;40;20790;-72
2021/05/21 07:55:07;;;;;;;1.40;0.30;;;17.50;90.60;;;;;;3570193;40;20378;-72
2021/05/21 07:57:35;;;;;;;0.98;0.32;;;17.50;89.80;;;;;;3552513;40;20408;-71
2021/05/21 08:00:02;;;;;;;2.90;0.60;;;17.60;90.10;;;;;;3570174;40;20388;-72
2021/05/21 08:02:28;;;;;;;5.10;0.50;;;17.50;90.80;;;;;;3564063;40;20504;-71
2021/05/21 08:04:54;;;;;;;1.42;0.60;;;17.60;91.30;;;;;;3572023;40;20421;-72
2021/05/21 08:07:20;;;;;;;2.42;0.35;;;17.50;90.60;;;;;;3575481;40;20397;-72
2021/05/21 08:09:49;;;;;;;1.50;0.50;;;17.60;92.30;;;;;;3572568;40;20370;-73
2021/05/21 08:12:16;;;;;;;0.93;0.30;;;17.50;91.00;;;;;;3572680;40;20382;-72
2021/05/21 08:14:43;;;;;;;1.00;0.30;;;;;;;;;;3573833;40;20443;-72
2021/05/21 08:17:10;;;;;;;1.75;0.30;;;17.80;91.80;;;;;;3575306;40;20386;-71
2021/05/21 08:19:36;;;;;;;4.32;0.80;;;17.70;91.60;;;;;;3534571;40;20408;-71
2021/05/21 08:22:03;;;;;;;8.15;0.80;;;;;;;;;;3582049;40;20378;-71
2021/05/21 08:24:29;;;;;;;3.20;0.70;;;;;;;;;;3579350;40;20712;-71
2021/05/21 08:26:55;;;;;;;3.17;0.40;;;;;;;;;;3578681;40;20379;-71
2021/05/21 08:29:22;;;;;;;1.45;0.38;;;;;;;;;;3584498;40;20771;-72
2021/05/21 08:31:48;;;;;;;3.80;0.32;;;18.00;92.40;;;;;;3585905;40;20421;-73
2021/05/21 08:34:14;;;;;;;2.00;0.43;;;;;;;;;;3580144;40;20426;-73
2021/05/21 08:36:40;;;;;;;1.95;0.35;;;;;;;;;;3581051;40;20712;-72
2021/05/21 08:39:07;;;;;;;3.80;0.40;;;;;;;;;;3582743;40;20364;-73
2021/05/21 08:41:36;;;;;;;2.60;0.40;;;;;;;;;;3584211;40;20447;-71
2021/05/21 08:44:03;;;;;;;4.33;0.40;;;18.60;90.60;;;;;;3581260;40;20760;-72
2021/05/21 08:46:32;;;;;;;2.83;0.40;;;;;;;;;;3583877;40;20781;-70
2021/05/21 08:48:59;;;;;;;3.08;0.40;;;19.10;90.70;;;;;;3582295;40;20667;-71
2021/05/21 08:51:27;;;;;;;2.05;0.30;;;19.30;90.90;;;;;;3584441;40;20408;-71
2021/05/21 08:53:53;;;;;;;1.80;0.30;;;19.60;85.90;;;;;;3580336;40;20519;-72
2021/05/21 08:56:19;;;;;;;2.78;0.70;;;19.60;85.10;;;;;;3580314;40;20419;-72
2021/05/21 08:58:45;;;;;;;2.42;0.40;;;19.60;84.70;;;;;;3577130;40;20656;-71
2021/05/21 09:01:12;;;;;;;1.45;0.40;;;;;;;;;;3578114;40;20394;-71
2021/05/21 09:03:39;;;;;;;1.92;0.43;;;;;;;;;;3580372;40;20384;-71
2021/05/21 09:06:21;;;;;;;2.63;0.40;;;;;;;;;;3580806;40;20382;-71
2021/05/21 09:08:48;;;;;;;1.67;0.33;;;;;;;;;;3580095;40;20437;-71
2021/05/21 09:11:33;;;;;;;1.15;0.30;;;19.50;88.50;;;;;;3579910;40;20388;-70
2021/05/21 09:14:02;;;;;;;2.28;0.30;;;20.00;87.40;;;;;;3578849;40;20409;-71
2021/05/21 09:16:29;;;;;;;2.15;0.40;;;20.10;85.00;;;;;;3586015;40;20686;-71
2021/05/21 09:19:00;;;;;;;1.13;0.40;;;;;;;;;;3586113;40;20409;-70
2021/05/21 09:21:44;;;;;;;1.70;0.40;;;20.30;88.10;;;;;;3585072;40;20419;-72
2021/05/21 09:24:10;;;;;;;2.47;0.30;;;;;;;;;;3587306;40;20677;-71
2021/05/21 09:26:42;;;;;;;2.35;0.40;;;20.20;86.30;;;;;;3584460;40;20727;-71
2021/05/21 09:29:09;;;;;;;3.65;0.40;;;20.60;85.10;;;;;;3584564;40;20406;-71
2021/05/21 09:31:42;;;;;;;1.70;0.30;;;20.40;85.90;;;;;;3589319;40;20369;-71
2021/05/21 09:34:09;;;;;;;2.20;0.50;;;20.20;88.00;;;;;;3585573;40;20401;-72
2021/05/21 09:36:37;;;;;;;2.10;0.65;;;20.10;85.90;;;;;;3584858;40;20385;-70
2021/05/21 09:39:07;;;;;;;4.15;0.43;;;20.20;87.30;;;;;;3587972;40;20373;-70
2021/05/21 09:41:46;;;;;;;1.08;0.30;;;20.40;87.50;;;;;;3579197;40;20420;-71
2021/05/21 09:44:12;;;;;;;2.65;0.47;;;20.50;84.60;;;;;;3587258;40;20388;-70
2021/05/21 09:46:39;;;;;;;2.28;0.30;;;20.40;85.20;;;;;;3584290;40;20375;-71
2021/05/21 09:49:27;;;;;;;4.10;0.40;;;20.70;87.40;;;;;;3584082;40;20366;-71
2021/05/21 09:51:55;;;;;;;1.30;0.50;;;20.90;84.80;;;;;;3590665;40;20418;-70
2021/05/21 09:54:21;;;;;;;2.60;0.60;;;21.00;85.00;;;;;;3588884;40;20401;-70
2021/05/21 09:57:04;;;;;;;2.95;0.50;;;21.10;86.00;;;;;;3584434;40;20380;-69
2021/05/21 09:59:40;;;;;;;6.38;1.20;;;20.60;87.00;;;;;;3585555;40;20414;-69
2021/05/21 10:02:23;;;;;;;2.00;0.50;;;20.50;88.60;;;;;;3577740;40;20452;-70
2021/05/21 10:04:51;;;;;;;2.97;0.50;;;20.60;88.30;;;;;;3579732;40;20437;-70
2021/05/21 10:07:18;;;;;;;1.90;0.35;;;20.40;85.70;;;;;;3579845;40;20396;-70
2021/05/21 10:09:44;;;;;;;2.22;0.38;;;20.30;87.80;;;;;;3577634;40;20408;-70
2021/05/21 10:12:11;;;;;;;2.75;0.40;;;20.40;88.50;;;;;;3579003;40;20395;-69
2021/05/21 10:14:37;;;;;;;2.97;0.32;;;20.10;89.60;;;;;;3579024;40;20392;-71
2021/05/21 10:17:04;;;;;;;1.95;0.35;;;20.00;89.40;;;;;;3570635;40;20718;-71
2021/05/21 10:19:32;;;;;;;2.58;0.40;;;20.20;88.40;;;;;;3571610;40;20411;-71
2021/05/21 10:22:01;;;;;;;3.55;0.35;;;20.70;90.40;;;;;;3579428;40;20498;-72
2021/05/21 10:24:30;;;;;;;4.22;0.38;;;;;;;;;;3578665;40;20396;-72
2021/05/21 10:26:57;;;;;;;1.70;0.38;;;;;;;;;;3579127;40;20394;-71
2021/05/21 10:29:26;;;;;;;2.67;0.25;;;21.10;86.00;;;;;;3581140;40;20410;-72
2021/05/21 10:32:02;;;;;;;3.27;0.40;;;20.90;83.00;;;;;;3580657;40;20400;-72
2021/05/21 10:34:28;;;;;;;1.92;0.35;;;20.70;84.00;;;;;;3578850;40;20659;-71
2021/05/21 10:37:26;;;;;;;2.22;0.40;;;20.90;82.90;;;;;;3579955;40;20377;-72
2021/05/21 10:40:02;;;;;;;1.20;0.50;;;20.80;84.10;;;;;;3576333;40;20416;-70
2021/05/21 10:42:29;;;;;;;3.08;0.50;;;;;;;;;;3580333;40;20754;-70
2021/05/21 10:45:13;;;;;;;2.17;0.30;;;20.80;85.10;;;;;;3579465;40;20654;-71
2021/05/21 10:47:40;;;;;;;1.60;0.40;;;20.60;83.10;;;;;;3580245;40;20402;-72
2021/05/21 10:50:15;;;;;;;2.78;0.30;;;20.80;81.70;;;;;;3580049;40;20380;-71
2021/05/21 10:53:00;;;;;;;1.73;0.30;;;20.40;82.90;;;;;;3582102;40;20375;-71
2021/05/21 10:55:46;;;;;;;2.37;0.40;;;20.80;86.70;;;;;;3576746;40;20722;-72
2021/05/21 10:58:22;;;;;;;2.55;0.40;;;20.90;81.20;;;;;;3584822;40;20434;-72
2021/05/21 11:01:12;;;;;;;1.38;0.50;;;21.10;83.20;;;;;;3578839;40;20422;-72
2021/05/21 11:04:04;;;;;;;4.65;0.50;;;21.30;81.80;;;;;;3576499;40;20443;-72
2021/05/21 11:06:32;;;;;;;1.50;0.40;;;21.10;82.50;;;;;;3579619;40;20396;-72
2021/05/21 11:08:59;;;;;;;2.87;0.40;;;;;;;;;;3579715;40;20811;-72
2021/05/21 11:11:40;;;;;;;3.60;0.50;;;;;;;;;;3579866;40;20418;-71
2021/05/21 11:14:07;;;;;;;1.60;0.30;;;;;;;;;;3564091;40;20398;-72
2021/05/21 11:16:33;;;;;;;2.30;0.40;;;;;;;;;;3563401;40;20425;-71
2021/05/21 11:19:05;;;;;;;3.80;0.40;;;;;;;;;;3563230;40;20488;-71
2021/05/21 11:21:31;;;;;;;1.70;0.40;;;;;;;;;;3564110;40;20385;-71
2021/05/21 11:24:06;;;;;;;1.77;0.40;;;21.50;83.00;;;;;;3564283;40;20455;-71
2021/05/21 11:26:37;;;;;;;2.15;0.60;;;22.60;82.00;;;;;;3551992;40;20428;-72
2021/05/21 11:29:07;;;;;;;2.58;0.57;;;22.10;77.30;;;;;;3561930;40;20398;-71
2021/05/21 11:31:36;;;;;;;1.25;0.30;;;;;;;;;;3559711;40;20549;-71
2021/05/21 11:34:03;;;;;;;1.70;0.50;;;;;;;;;;3569713;40;20521;-71
2021/05/21 11:36:31;;;;;;;1.42;0.52;;;;;;;;;;3561814;40;20410;-71
2021/05/21 11:38:57;;;;;;;2.55;0.30;;;;;;;;;;3563948;40;20691;-71
2021/05/21 11:41:29;;;;;;;2.43;0.30;;;;;;;;;;3563707;40;20370;-72
2021/05/21 11:43:55;;;;;;;2.10;0.47;;;21.90;76.70;;;;;;3562899;40;20402;-71
2021/05/21 11:46:21;;;;;;;2.00;0.30;;;21.90;82.50;;;;;;3575368;40;20388;-72
2021/05/21 11:48:49;;;;;;;3.20;0.50;;;22.20;78.10;;;;;;3573389;40;20406;-72
2021/05/21 11:51:21;;;;;;;1.10;0.30;;;22.40;77.30;;;;;;3572866;40;20388;-72
2021/05/21 11:53:49;;;;;;;1.70;0.30;;;22.80;76.00;;;;;;3571833;40;20392;-72
2021/05/21 11:56:27;;;;;;;1.63;0.30;;;22.50;77.70;;;;;;3571408;40;20400;-72
2021/05/21 11:58:57;;;;;;;2.60;0.50;;;;;;;;;;3580616;40;20404;-71
2021/05/21 12:01:24;;;;;;;1.60;0.30;;;;;;;;;;3573001;40;20472;-71
2021/05/21 12:03:50;;;;;;;1.70;0.38;;;;;;;;;;3579765;40;20418;-72
2021/05/21 12:06:16;;;;;;;1.77;0.40;;;;;;;;;;3571816;40;20388;-71
2021/05/21 12:08:46;;;;;;;1.35;0.30;;;;;;;;;;3573221;40;20506;-72
2021/05/21 12:11:12;;;;;;;3.33;0.55;;;;;;;;;;3572539;40;20449;-72
2021/05/21 12:13:38;;;;;;;1.70;0.30;;;;;;;;;;3572281;40;20378;-72
2021/05/21 12:16:09;;;;;;;2.88;0.30;;;;;;;;;;3567615;40;20507;-72
2021/05/21 12:18:36;;;;;;;1.45;0.28;;;;;;;;;;3579637;40;20368;-71
2021/05/21 12:21:02;;;;;;;2.95;0.43;;;;;;;;;;3578151;40;20423;-73
2021/05/21 12:23:31;;;;;;;2.47;0.30;;;;;;;;;;3582884;40;20451;-74
2021/05/21 12:25:57;;;;;;;1.67;0.45;;;;;;;;;;3580181;40;20435;-71
2021/05/21 12:28:23;;;;;;;1.15;0.40;;;;;;;;;;3580595;40;20372;-70
2021/05/21 12:30:49;;;;;;;3.65;0.50;;;;;;;;;;3580989;40;20377;-72
2021/05/21 12:33:17;;;;;;;1.38;0.30;;;;;;;;;;3582810;40;20450;-72
2021/05/21 12:35:43;;;;;;;1.90;0.47;;;;;;;;;;3579288;40;20405;-71
2021/05/21 12:38:10;;;;;;;2.23;0.60;;;;;;;;;;3579631;40;20746;-71
2021/05/21 12:40:49;;;;;;;3.63;0.77;;;22.80;75.40;;;;;;3567784;40;20481;-71
2021/05/21 12:43:16;;;;;;;3.05;0.43;;;;;;;;;;3581431;40;20418;-71
2021/05/21 12:46:02;;;;;;;1.63;0.30;;;22.80;73.80;;;;;;3579219;40;20399;-70
2021/05/21 12:48:48;;;;;;;2.50;0.30;;;23.50;73.00;;;;;;3582260;40;20378;-71
2021/05/21 12:51:17;;;;;;;2.08;0.40;;;23.70;73.70;;;;;;3581060;40;20545;-71
2021/05/21 12:53:45;;;;;;;1.80;0.30;;;23.70;69.70;;;;;;3584128;40;20404;-72
2021/05/21 12:56:26;;;;;;;2.55;0.52;;;;;;;;;;3581911;40;20409;-72
2021/05/21 12:58:52;;;;;;;1.03;0.40;;;;;;;;;;3582659;40;20445;-72
2021/05/21 13:01:19;;;;;;;2.50;0.60;;;;;;;;;;3582203;40;20373;-71
2021/05/21 13:03:50;;;;;;;1.40;0.50;;;;;;;;;;3582444;40;20441;-72
2021/05/21 13:06:16;;;;;;;1.98;0.22;;;;;;;;;;3582071;40;20380;-72
2021/05/21 13:08:47;;;;;;;2.13;0.38;;;23.30;69.60;;;;;;3585949;40;20401;-72
2021/05/21 13:11:13;;;;;;;1.75;0.30;;;23.40;74.40;;;;;;3580577;40;20540;-71
2021/05/21 13:13:39;;;;;;;4.00;0.30;;;23.90;67.30;;;;;;3581922;40;20372;-73
2021/05/21 13:16:05;;;;;;;2.72;0.70;;;23.70;68.90;;;;;;3583633;40;20409;-72
2021/05/21 13:18:32;;;;;;;2.50;0.25;;;23.60;70.30;;;;;;3583888;40;20369;-72
2021/05/21 13:21:05;;;;;;;2.53;0.30;;;;;;;;;;3585411;40;20369;-71
2021/05/21 13:23:31;;;;;;;2.90;0.40;;;23.90;71.60;;;;;;3573151;40;20405;-72
2021/05/21 13:26:01;;;;;;;1.70;0.30;;;23.50;64.00;;;;;;3575249;40;20495;-72
2021/05/21 13:28:27;;;;;;;2.10;0.38;;;;;;;;;;3577545;40;20402;-72
2021/05/21 13:30:53;;;;;;;0.90;0.30;;;;;;;;;;3568635;40;20404;-72
2021/05/21 13:33:20;;;;;;;1.38;0.20;;;;;;;;;;3566352;40;20464;-72
2021/05/21 13:35:45;;;;;;;2.80;0.35;;;22.80;64.10;;;;;;3575835;40;20375;-73
2021/05/21 13:38:13;;;;;;;1.37;0.20;;;22.90;65.60;;;;;;3578113;40;20803;-71
2021/05/21 13:40:39;;;;;;;1.77;0.20;;;23.00;69.70;;;;;;3579282;40;20400;-72
2021/05/21 13:43:05;;;;;;;1.80;0.30;;;22.90;68.30;;;;;;3571311;40;20411;-72
2021/05/21 13:45:31;;;;;;;2.22;0.50;;;22.90;67.80;;;;;;3574204;40;20398;-72
2021/05/21 13:47:58;;;;;;;2.05;0.38;;;;;;;;;;3575409;40;20383;-71
2021/05/21 13:50:26;;;;;;;1.95;0.30;;;22.40;67.90;;;;;;3572240;40;20367;-71
2021/05/21 13:52:52;;;;;;;1.95;0.30;;;;;;;;;;3575934;40;20787;-72
2021/05/21 13:55:19;;;;;;;1.13;0.30;;;;;;;;;;3584165;40;20408;-72
2021/05/21 13:57:46;;;;;;;2.00;0.20;;;;;;;;;;3575543;40;20819;-70
2021/05/21 14:00:14;;;;;;;1.60;0.30;;;;;;;;;;3576500;40;20385;-72
2021/05/21 14:02:40;;;;;;;1.00;0.30;;;;;;;;;;3590385;39;20961;-71
2021/05/21 14:05:07;;;;;;;1.77;0.20;;;;;;;;;;3585772;40;20372;-72
2021/05/21 14:07:34;;;;;;;2.00;0.20;;;;;;;;;;3584417;40;20382;-72